createdAt,value
2023-05-02T00:00:44.916Z,499.00
2023-05-02T00:01:44.950Z,500.00
2023-05-02T00:02:45.032Z,500.00
2023-05-02T00:03:45.089Z,500.00
2023-05-02T00:04:45.381Z,499.00
2023-05-02T00:05:45.055Z,499.00
2023-05-02T00:06:45.212Z,500.00
2023-05-02T00:07:45.134Z,498.00
2023-05-02T00:08:45.162Z,497.00
2023-05-02T00:09:45.214Z,494.00
2023-05-02T00:10:45.279Z,491.00
2023-05-02T00:11:45.282Z,491.00
2023-05-02T00:12:45.308Z,489.00
2023-05-02T00:13:45.368Z,490.00
2023-05-02T00:14:45.413Z,493.00
2023-05-02T00:15:45.428Z,494.00
2023-05-02T00:16:45.517Z,492.00
2023-05-02T00:17:45.571Z,492.00
2023-05-02T00:18:45.506Z,491.00
2023-05-02T00:19:45.858Z,494.00
2023-05-02T00:20:45.597Z,494.00
2023-05-02T00:21:45.623Z,493.00
2023-05-02T00:22:45.682Z,492.00
2023-05-02T00:23:45.686Z,492.00
2023-05-02T00:24:45.733Z,492.00
2023-05-02T00:25:45.788Z,493.00
2023-05-02T00:26:45.792Z,495.00
2023-05-02T00:27:45.865Z,496.00
2023-05-02T00:28:45.890Z,495.00
2023-05-02T00:29:46.312Z,493.00
2023-05-02T00:30:46.010Z,493.00
2023-05-02T00:31:46.005Z,494.00
2023-05-02T00:32:46.088Z,492.00
2023-05-02T00:33:46.114Z,490.00
2023-05-02T00:34:46.144Z,489.00
2023-05-02T00:35:46.173Z,488.00
2023-05-02T00:36:46.241Z,489.00
2023-05-02T00:37:46.261Z,489.00
2023-05-02T00:38:46.316Z,491.00
2023-05-02T00:39:46.358Z,491.00
2023-05-02T00:40:46.395Z,493.00
2023-05-02T00:41:46.519Z,494.00
2023-05-02T00:42:46.463Z,496.00
2023-05-02T00:43:46.489Z,496.00
2023-05-02T00:44:46.544Z,497.00
2023-05-02T00:45:46.709Z,497.00
2023-05-02T00:46:46.683Z,496.00
2023-05-02T00:47:47.341Z,499.00
2023-05-02T00:48:46.721Z,502.00
2023-05-02T00:49:46.766Z,501.00
2023-05-02T00:50:46.797Z,501.00
2023-05-02T00:51:46.836Z,500.00
2023-05-02T00:52:46.859Z,497.00
2023-05-02T00:53:46.914Z,497.00
2023-05-02T00:54:46.949Z,497.00
2023-05-02T00:55:47.004Z,494.00
2023-05-02T00:56:47.035Z,494.00
2023-05-02T00:57:47.065Z,491.00
2023-05-02T00:58:47.152Z,488.00
2023-05-02T00:59:47.281Z,487.00
2023-05-02T01:00:47.245Z,488.00
2023-05-02T01:01:47.296Z,490.00
2023-05-02T01:02:47.426Z,490.00
2023-05-02T01:03:47.456Z,487.00
2023-05-02T01:04:47.434Z,489.00
2023-05-02T01:05:47.431Z,491.00
2023-05-02T01:06:47.547Z,492.00
2023-05-02T01:07:47.555Z,492.00
2023-05-02T01:08:47.569Z,491.00
2023-05-02T01:09:47.638Z,490.00
2023-05-02T01:10:47.682Z,487.00
2023-05-02T01:11:47.709Z,485.00
2023-05-02T01:12:47.755Z,484.00
2023-05-02T01:13:47.791Z,485.00
2023-05-02T01:14:47.838Z,485.00
2023-05-02T01:15:47.911Z,486.00
2023-05-02T01:16:47.906Z,486.00
2023-05-02T01:17:47.993Z,488.00
2023-05-02T01:18:47.983Z,490.00
2023-05-02T01:19:48.033Z,491.00
2023-05-02T01:20:48.084Z,491.00
2023-05-02T01:21:48.154Z,493.00
2023-05-02T01:22:48.210Z,493.00
2023-05-02T01:23:48.270Z,495.00
2023-05-02T01:24:48.273Z,496.00
2023-05-02T01:25:48.330Z,495.00
2023-05-02T01:26:48.372Z,495.00
2023-05-02T01:27:48.365Z,496.00
2023-05-02T01:28:48.435Z,495.00
2023-05-02T01:29:48.511Z,496.00
2023-05-02T01:30:48.516Z,496.00
2023-05-02T01:31:48.696Z,499.00
2023-05-02T01:32:48.681Z,500.00
2023-05-02T01:33:48.633Z,501.00
2023-05-02T01:34:48.694Z,498.00
2023-05-02T01:35:48.722Z,497.00
2023-05-02T01:36:48.777Z,496.00
2023-05-02T01:37:48.828Z,499.00
2023-05-02T01:38:48.865Z,499.00
2023-05-02T01:39:48.894Z,499.00
2023-05-02T01:40:48.971Z,499.00
2023-05-02T01:41:48.977Z,500.00
2023-05-02T01:42:49.047Z,501.00
2023-05-02T01:43:49.059Z,499.00
2023-05-02T01:44:49.146Z,501.00
2023-05-02T01:45:49.146Z,501.00
2023-05-02T01:46:49.226Z,499.00
2023-05-02T01:47:49.318Z,497.00
2023-05-02T01:48:49.260Z,497.00
2023-05-02T01:49:49.333Z,499.00
2023-05-02T01:50:49.391Z,497.00
2023-05-02T01:51:49.423Z,496.00
2023-05-02T01:52:49.481Z,495.00
2023-05-02T01:53:49.529Z,495.00
2023-05-02T01:54:49.602Z,495.00
2023-05-02T01:55:49.608Z,493.00
2023-05-02T01:56:49.666Z,491.00
2023-05-02T01:57:49.696Z,491.00
2023-05-02T01:58:49.756Z,492.00
2023-05-02T01:59:49.847Z,492.00
2023-05-02T02:00:49.962Z,495.00
2023-05-02T02:01:49.930Z,495.00
2023-05-02T02:02:50.075Z,495.00
2023-05-02T02:03:50.016Z,494.00
2023-05-02T02:04:50.132Z,493.00
2023-05-02T02:05:50.093Z,496.00
2023-05-02T02:06:50.225Z,499.00
2023-05-02T02:07:50.227Z,500.00
2023-05-02T02:08:50.261Z,500.00
2023-05-02T02:09:50.316Z,500.00
2023-05-02T02:10:50.344Z,500.00
2023-05-02T02:11:50.377Z,500.00
2023-05-02T02:12:50.428Z,499.00
2023-05-02T02:13:50.475Z,499.00
2023-05-02T02:14:50.522Z,500.00
2023-05-02T02:15:50.554Z,499.00
2023-05-02T02:16:50.671Z,499.00
2023-05-02T02:17:50.669Z,499.00
2023-05-02T02:18:50.672Z,498.00
2023-05-02T02:19:50.763Z,500.00
2023-05-02T02:20:50.783Z,498.00
2023-05-02T02:21:50.866Z,496.00
2023-05-02T02:22:50.891Z,496.00
2023-05-02T02:23:50.926Z,497.00
2023-05-02T02:24:52.455Z,495.00
2023-05-02T02:25:51.007Z,493.00
2023-05-02T02:26:50.987Z,492.00
2023-05-02T02:27:50.991Z,493.00
2023-05-02T02:28:50.938Z,495.00
2023-05-02T02:29:50.972Z,496.00
2023-05-02T02:30:50.981Z,497.00
2023-05-02T02:31:50.984Z,496.00
2023-05-02T02:32:51.015Z,496.00
2023-05-02T02:33:50.948Z,497.00
2023-05-02T02:34:50.938Z,496.00
2023-05-02T02:35:50.894Z,496.00
2023-05-02T02:36:50.924Z,496.00
2023-05-02T02:37:50.906Z,496.00
2023-05-02T02:38:50.894Z,496.00
2023-05-02T02:39:50.926Z,495.00
2023-05-02T02:40:50.857Z,496.00
2023-05-02T02:41:50.878Z,495.00
2023-05-02T02:42:50.886Z,498.00
2023-05-02T02:43:50.851Z,499.00
2023-05-02T02:44:50.870Z,502.00
2023-05-02T02:45:50.875Z,502.00
2023-05-02T02:46:50.841Z,503.00
2023-05-02T02:47:50.843Z,503.00
2023-05-02T02:48:50.836Z,504.00
2023-05-02T02:49:50.846Z,505.00
2023-05-02T02:50:50.792Z,504.00
2023-05-02T02:51:50.813Z,502.00
2023-05-02T02:52:50.772Z,499.00
2023-05-02T02:53:50.811Z,499.00
2023-05-02T02:54:50.818Z,496.00
2023-05-02T02:55:50.757Z,496.00
2023-05-02T02:56:50.784Z,497.00
2023-05-02T02:57:50.783Z,496.00
2023-05-02T02:58:50.747Z,499.00
2023-05-02T02:59:50.760Z,501.00
2023-05-02T03:00:50.748Z,503.00
2023-05-02T03:01:50.801Z,502.00
2023-05-02T03:02:50.764Z,504.00
2023-05-02T03:03:50.797Z,503.00
2023-05-02T03:04:50.820Z,499.00
2023-05-02T03:05:50.870Z,499.00
2023-05-02T03:06:51.066Z,498.00
2023-05-02T03:07:50.976Z,498.00
2023-05-02T03:08:51.059Z,497.00
2023-05-02T03:09:51.117Z,499.00
2023-05-02T03:10:51.151Z,498.00
2023-05-02T03:11:51.219Z,499.00
2023-05-02T03:12:51.253Z,499.00
2023-05-02T03:13:51.325Z,497.00
2023-05-02T03:14:51.371Z,497.00
2023-05-02T03:15:51.501Z,494.00
2023-05-02T03:16:51.467Z,495.00
2023-05-02T03:17:51.592Z,498.00
2023-05-02T03:18:51.606Z,500.00
2023-05-02T03:19:51.668Z,500.00
2023-05-02T03:20:51.721Z,502.00
2023-05-02T03:21:51.758Z,501.00
2023-05-02T03:22:51.834Z,502.00
2023-05-02T03:23:51.905Z,501.00
2023-05-02T03:24:51.960Z,502.00
2023-05-02T03:25:52.007Z,502.00
2023-05-02T03:26:52.055Z,499.00
2023-05-02T03:27:52.111Z,499.00
2023-05-02T03:28:52.169Z,499.00
2023-05-02T03:29:52.249Z,500.00
2023-05-02T03:30:52.287Z,499.00
2023-05-02T03:31:52.444Z,501.00
2023-05-02T03:32:52.494Z,500.00
2023-05-02T03:33:52.493Z,500.00
2023-05-02T03:34:52.514Z,501.00
2023-05-02T03:35:52.576Z,501.00
2023-05-02T03:36:52.629Z,501.00
2023-05-02T03:37:52.692Z,500.00
2023-05-02T03:38:52.772Z,500.00
2023-05-02T03:39:52.809Z,499.00
2023-05-02T03:40:52.898Z,497.00
2023-05-02T03:41:52.921Z,498.00
2023-05-02T03:42:52.999Z,498.00
2023-05-02T03:43:53.057Z,500.00
2023-05-02T03:44:53.129Z,501.00
2023-05-02T03:45:53.163Z,502.00
2023-05-02T03:46:53.266Z,503.00
2023-05-02T03:47:53.315Z,504.00
2023-05-02T03:48:53.349Z,505.00
2023-05-02T03:49:54.433Z,505.00
2023-05-02T03:50:53.456Z,504.00
2023-05-02T03:51:53.502Z,503.00
2023-05-02T03:52:53.568Z,503.00
2023-05-02T03:53:53.646Z,503.00
2023-05-02T03:54:53.691Z,503.00
2023-05-02T03:55:53.760Z,504.00
2023-05-02T03:56:53.807Z,506.00
2023-05-02T03:57:53.885Z,503.00
2023-05-02T03:58:53.950Z,503.00
2023-05-02T03:59:53.991Z,503.00
2023-05-02T04:00:54.069Z,504.00
2023-05-02T04:01:54.154Z,503.00
2023-05-02T04:02:54.216Z,500.00
2023-05-02T04:03:54.264Z,498.00
2023-05-02T04:04:54.305Z,499.00
2023-05-02T04:05:54.360Z,502.00
2023-05-02T04:06:54.566Z,503.00
2023-05-02T04:07:54.507Z,504.00
2023-05-02T04:08:54.570Z,504.00
2023-05-02T04:09:54.628Z,503.00
2023-05-02T04:10:54.679Z,500.00
2023-05-02T04:11:54.796Z,499.00
2023-05-02T04:12:54.818Z,498.00
2023-05-02T04:13:54.867Z,499.00
2023-05-02T04:14:54.947Z,500.00
2023-05-02T04:15:55.005Z,501.00
2023-05-02T04:16:55.122Z,502.00
2023-05-02T04:17:55.230Z,501.00
2023-05-02T04:18:55.191Z,500.00
2023-05-02T04:19:55.238Z,503.00
2023-05-02T04:20:55.373Z,505.00
2023-05-02T04:21:55.361Z,506.00
2023-05-02T04:22:55.533Z,505.00
2023-05-02T04:23:55.503Z,505.00
2023-05-02T04:24:55.552Z,505.00
2023-05-02T04:25:55.606Z,508.00
2023-05-02T04:26:55.684Z,509.00
2023-05-02T04:27:55.775Z,509.00
2023-05-02T04:28:55.806Z,508.00
2023-05-02T04:29:55.879Z,507.00
2023-05-02T04:30:56.027Z,507.00
2023-05-02T04:31:55.963Z,509.00
2023-05-02T04:32:56.149Z,508.00
2023-05-02T04:33:56.110Z,511.00
2023-05-02T04:34:56.233Z,509.00
2023-05-02T04:35:56.238Z,507.00
2023-05-02T04:36:56.316Z,506.00
2023-05-02T04:37:56.337Z,506.00
2023-05-02T04:38:56.433Z,505.00
2023-05-02T04:39:56.518Z,506.00
2023-05-02T04:40:56.535Z,506.00
2023-05-02T04:41:56.636Z,507.00
2023-05-02T04:42:56.712Z,506.00
2023-05-02T04:43:56.724Z,508.00
2023-05-02T04:44:56.802Z,508.00
2023-05-02T04:45:56.926Z,507.00
2023-05-02T04:46:56.931Z,505.00
2023-05-02T04:47:57.041Z,505.00
2023-05-02T04:48:57.081Z,503.00
2023-05-02T04:49:57.159Z,505.00
2023-05-02T04:50:57.169Z,504.00
2023-05-02T04:51:57.265Z,504.00
2023-05-02T04:52:57.310Z,504.00
2023-05-02T04:53:57.350Z,504.00
2023-05-02T04:54:57.429Z,506.00
2023-05-02T04:55:57.434Z,507.00
2023-05-02T04:56:57.469Z,510.00
2023-05-02T04:57:57.523Z,512.00
2023-05-02T04:58:57.617Z,513.00
2023-05-02T04:59:57.680Z,511.00
2023-05-02T05:00:57.662Z,509.00
2023-05-02T05:01:57.748Z,508.00
2023-05-02T05:02:59.292Z,507.00
2023-05-02T05:03:57.928Z,506.00
2023-05-02T05:04:57.836Z,505.00
2023-05-02T05:05:57.758Z,503.00
2023-05-02T05:06:57.855Z,503.00
2023-05-02T05:07:57.727Z,504.00
2023-05-02T05:08:57.741Z,504.00
2023-05-02T05:09:57.903Z,504.00
2023-05-02T05:10:57.734Z,504.00
2023-05-02T05:11:57.815Z,503.00
2023-05-02T05:12:57.734Z,501.00
2023-05-02T05:13:57.707Z,500.00
2023-05-02T05:14:57.721Z,500.00
2023-05-02T05:15:57.708Z,499.00
2023-05-02T05:16:57.653Z,499.00
2023-05-02T05:17:57.675Z,499.00
2023-05-02T05:18:57.705Z,500.00
2023-05-02T05:19:57.858Z,499.00
2023-05-02T05:20:57.639Z,501.00
2023-05-02T05:21:57.656Z,501.00
2023-05-02T05:22:57.638Z,499.00
2023-05-02T05:23:57.624Z,502.00
2023-05-02T05:24:57.639Z,501.00
2023-05-02T05:25:57.606Z,500.00
2023-05-02T05:26:57.607Z,500.00
2023-05-02T05:27:57.603Z,500.00
2023-05-02T05:28:57.604Z,501.00
2023-05-02T05:29:57.710Z,500.00
2023-05-02T05:30:57.606Z,501.00
2023-05-02T05:31:57.626Z,504.00
2023-05-02T05:32:57.628Z,502.00
2023-05-02T05:33:57.637Z,503.00
2023-05-02T05:34:57.977Z,503.00
2023-05-02T05:35:57.554Z,511.00
2023-05-02T05:36:57.546Z,521.00
2023-05-02T05:37:57.537Z,527.00
2023-05-02T05:38:57.577Z,530.00
2023-05-02T05:39:57.720Z,532.00
2023-05-02T05:40:57.515Z,535.00
2023-05-02T05:41:57.558Z,536.00
2023-05-02T05:42:57.707Z,538.00
2023-05-02T05:43:57.660Z,550.00
2023-05-02T05:44:57.687Z,554.00
2023-05-02T05:45:57.722Z,557.00
2023-05-02T05:46:57.802Z,567.00
2023-05-02T05:47:57.810Z,580.00
2023-05-02T05:48:57.826Z,611.00
2023-05-02T05:49:58.185Z,627.00
2023-05-02T05:50:57.947Z,628.00
2023-05-02T05:51:57.994Z,635.00
2023-05-02T05:52:58.056Z,655.00
2023-05-02T05:53:58.072Z,726.00
2023-05-02T05:54:58.081Z,743.00
2023-05-02T05:55:58.132Z,761.00
2023-05-02T05:56:58.154Z,771.00
2023-05-02T05:57:58.184Z,770.00
2023-05-02T05:58:58.251Z,765.00
2023-05-02T05:59:58.475Z,760.00
2023-05-02T06:00:58.306Z,757.00
2023-05-02T06:01:58.326Z,755.00
2023-05-02T06:02:58.473Z,755.00
2023-05-02T06:03:58.486Z,752.00
2023-05-02T06:04:58.520Z,754.00
2023-05-02T06:05:58.488Z,758.00
2023-05-02T06:06:58.632Z,761.00
2023-05-02T06:07:58.582Z,763.00
2023-05-02T06:08:58.643Z,765.00
2023-05-02T06:09:58.856Z,763.00
2023-05-02T06:10:58.697Z,765.00
2023-05-02T06:11:58.703Z,771.00
2023-05-02T06:12:58.746Z,776.00
2023-05-02T06:13:58.801Z,785.00
2023-05-02T06:14:58.989Z,794.00
2023-05-02T06:15:58.878Z,804.00
2023-05-02T06:16:59.005Z,804.00
2023-05-02T06:17:59.125Z,808.00
2023-05-02T06:18:58.990Z,815.00
2023-05-02T06:19:59.394Z,812.00
2023-05-02T06:20:59.075Z,810.00
2023-05-02T06:21:59.118Z,815.00
2023-05-02T06:22:59.167Z,826.00
2023-05-02T06:23:59.213Z,835.00
2023-05-02T06:24:59.256Z,841.00
2023-05-02T06:25:59.296Z,841.00
2023-05-02T06:26:59.381Z,843.00
2023-05-02T06:27:59.427Z,846.00
2023-05-02T06:28:59.460Z,850.00
2023-05-02T06:29:59.847Z,854.00
2023-05-02T06:30:59.734Z,859.00
2023-05-02T06:31:59.787Z,863.00
2023-05-02T06:32:59.717Z,861.00
2023-05-02T06:33:59.732Z,857.00
2023-05-02T06:34:59.757Z,849.00
2023-05-02T06:36:01.703Z,843.00
2023-05-02T06:36:59.842Z,840.00
2023-05-02T06:37:59.878Z,841.00
2023-05-02T06:38:59.977Z,851.00
2023-05-02T06:40:00.183Z,868.00
2023-05-02T06:41:00.017Z,882.00
2023-05-02T06:42:00.083Z,893.00
2023-05-02T06:43:00.209Z,894.00
2023-05-02T06:44:00.250Z,897.00
2023-05-02T06:45:00.330Z,899.00
2023-05-02T06:46:00.334Z,899.00
2023-05-02T06:47:00.483Z,898.00
2023-05-02T06:48:00.459Z,959.00
2023-05-02T06:49:00.450Z,964.00
2023-05-02T06:50:01.232Z,951.00
2023-05-02T06:51:00.556Z,968.00
2023-05-02T06:52:00.686Z,992.00
2023-05-02T06:53:00.628Z,1013.00
2023-05-02T06:54:00.703Z,1007.00
2023-05-02T06:55:01.001Z,987.00
2023-05-02T06:56:00.783Z,975.00
2023-05-02T06:57:00.853Z,972.00
2023-05-02T06:58:00.941Z,977.00
2023-05-02T06:59:00.936Z,974.00
2023-05-02T07:00:01.306Z,974.00
2023-05-02T07:01:01.093Z,971.00
2023-05-02T07:02:02.355Z,970.00
2023-05-02T07:03:01.247Z,973.00
2023-05-02T07:04:01.251Z,980.00
2023-05-02T07:05:01.320Z,978.00
2023-05-02T07:06:01.384Z,979.00
2023-05-02T07:07:01.330Z,979.00
2023-05-02T07:08:01.454Z,979.00
2023-05-02T07:09:01.451Z,981.00
2023-05-02T07:10:01.916Z,981.00
2023-05-02T07:11:01.512Z,982.00
2023-05-02T07:12:02.000Z,983.00
2023-05-02T07:13:01.620Z,988.00
2023-05-02T07:14:01.760Z,989.00
2023-05-02T07:15:01.712Z,991.00
2023-05-02T07:16:01.802Z,993.00
2023-05-02T07:17:01.880Z,996.00
2023-05-02T07:18:01.879Z,996.00
2023-05-02T07:19:01.896Z,985.00
2023-05-02T07:20:02.192Z,947.00
2023-05-02T07:21:01.988Z,905.00
2023-05-02T07:22:02.095Z,886.00
2023-05-02T07:23:02.074Z,886.00
2023-05-02T07:24:02.103Z,889.00
2023-05-02T07:25:02.172Z,896.00
2023-05-02T07:26:03.797Z,908.00
2023-05-02T07:27:02.404Z,917.00
2023-05-02T07:28:02.433Z,928.00
2023-05-02T07:29:02.476Z,941.00
2023-05-02T07:30:02.929Z,949.00
2023-05-02T07:31:02.566Z,953.00
2023-05-02T07:32:02.710Z,951.00
2023-05-02T07:33:02.706Z,951.00
2023-05-02T07:34:02.729Z,953.00
2023-05-02T07:35:02.738Z,952.00
2023-05-02T07:36:02.877Z,948.00
2023-05-02T07:37:02.901Z,946.00
2023-05-02T07:38:02.868Z,942.00
2023-05-02T07:39:02.937Z,942.00
2023-05-02T07:40:03.280Z,939.00
2023-05-02T07:41:03.044Z,941.00
2023-05-02T07:42:03.103Z,938.00
2023-05-02T07:43:03.206Z,969.00
2023-05-02T07:44:03.197Z,982.00
2023-05-02T07:45:03.453Z,970.00
2023-05-02T07:46:03.308Z,964.00
2023-05-02T07:47:03.264Z,962.00
2023-05-02T07:48:03.354Z,968.00
2023-05-02T07:49:03.338Z,969.00
2023-05-02T07:50:03.626Z,975.00
2023-05-02T07:51:03.452Z,975.00
2023-05-02T07:52:03.467Z,969.00
2023-05-02T07:53:03.541Z,963.00
2023-05-02T07:54:03.573Z,959.00
2023-05-02T07:55:03.625Z,957.00
2023-05-02T07:56:03.668Z,961.00
2023-05-02T07:57:03.740Z,960.00
2023-05-02T07:58:03.755Z,958.00
2023-05-02T07:59:05.494Z,956.00
2023-05-02T08:00:03.977Z,953.00
2023-05-02T08:01:03.947Z,952.00
2023-05-02T08:02:03.929Z,954.00
2023-05-02T08:03:04.118Z,955.00
2023-05-02T08:04:04.370Z,952.00
2023-05-02T08:05:04.551Z,953.00
2023-05-02T08:06:04.169Z,955.00
2023-05-02T08:07:04.175Z,954.00
2023-05-02T08:08:04.230Z,951.00
2023-05-02T08:09:04.292Z,947.00
2023-05-02T08:10:04.562Z,942.00
2023-05-02T08:11:04.386Z,941.00
2023-05-02T08:12:04.396Z,941.00
2023-05-02T08:13:04.470Z,942.00
2023-05-02T08:14:04.481Z,941.00
2023-05-02T08:15:04.541Z,943.00
2023-05-02T08:16:04.713Z,944.00
2023-05-02T08:17:04.652Z,944.00
2023-05-02T08:18:04.703Z,946.00
2023-05-02T08:19:04.693Z,946.00
2023-05-02T08:20:04.764Z,942.00
2023-05-02T08:21:04.785Z,939.00
2023-05-02T08:22:04.854Z,940.00
2023-05-02T08:23:04.880Z,946.00
2023-05-02T08:24:04.936Z,962.00
2023-05-02T08:25:04.992Z,972.00
2023-05-02T08:26:05.042Z,967.00
2023-05-02T08:27:05.085Z,956.00
2023-05-02T08:28:05.124Z,945.00
2023-05-02T08:29:05.164Z,939.00
2023-05-02T08:30:05.603Z,938.00
2023-05-02T08:31:05.331Z,939.00
2023-05-02T08:32:05.605Z,936.00
2023-05-02T08:33:05.477Z,934.00
2023-05-02T08:34:05.479Z,931.00
2023-05-02T08:35:05.546Z,929.00
2023-05-02T08:36:05.707Z,941.00
2023-05-02T08:37:05.664Z,941.00
2023-05-02T08:38:05.712Z,937.00
2023-05-02T08:39:05.735Z,938.00
2023-05-02T08:40:05.717Z,936.00
2023-05-02T08:41:05.786Z,922.00
2023-05-02T08:42:05.877Z,912.00
2023-05-02T08:43:05.912Z,910.00
2023-05-02T08:44:05.960Z,910.00
2023-05-02T08:45:06.572Z,912.00
2023-05-02T08:46:06.059Z,914.00
2023-05-02T08:47:06.165Z,914.00
2023-05-02T08:48:06.200Z,924.00
2023-05-02T08:49:06.241Z,926.00
2023-05-02T08:50:06.529Z,935.00
2023-05-02T08:51:06.298Z,973.00
2023-05-02T08:52:06.374Z,997.00
2023-05-02T08:53:06.418Z,1000.00
2023-05-02T08:54:06.442Z,1008.00
2023-05-02T08:55:06.499Z,1005.00
2023-05-02T08:56:06.556Z,1005.00
2023-05-02T08:57:06.608Z,1011.00
2023-05-02T08:58:06.661Z,1011.00
2023-05-02T08:59:06.741Z,1012.00
2023-05-02T09:00:06.814Z,1010.00
2023-05-02T09:01:06.860Z,1006.00
2023-05-02T09:02:06.914Z,1002.00
2023-05-02T09:03:06.993Z,997.00
2023-05-02T09:04:07.060Z,995.00
2023-05-02T09:05:07.077Z,995.00
2023-05-02T09:06:07.133Z,992.00
2023-05-02T09:07:07.152Z,987.00
2023-05-02T09:08:07.203Z,982.00
2023-05-02T09:09:07.205Z,975.00
2023-05-02T09:10:07.489Z,966.00
2023-05-02T09:11:07.319Z,965.00
2023-05-02T09:12:07.376Z,963.00
2023-05-02T09:13:07.441Z,959.00
2023-05-02T09:14:07.445Z,955.00
2023-05-02T09:15:07.483Z,953.00
2023-05-02T09:16:07.561Z,953.00
2023-05-02T09:17:07.664Z,953.00
2023-05-02T09:18:07.644Z,949.00
2023-05-02T09:19:07.628Z,949.00
2023-05-02T09:20:07.664Z,953.00
2023-05-02T09:21:08.010Z,953.00
2023-05-02T09:22:07.740Z,953.00
2023-05-02T09:23:07.769Z,955.00
2023-05-02T09:24:07.804Z,960.00
2023-05-02T09:25:07.861Z,960.00
2023-05-02T09:26:08.019Z,956.00
2023-05-02T09:27:07.960Z,956.00
2023-05-02T09:28:08.017Z,956.00
2023-05-02T09:29:08.052Z,952.00
2023-05-02T09:30:08.081Z,949.00
2023-05-02T09:31:08.257Z,939.00
2023-05-02T09:32:08.260Z,935.00
2023-05-02T09:33:08.232Z,933.00
2023-05-02T09:34:08.284Z,930.00
2023-05-02T09:35:08.348Z,926.00
2023-05-02T09:36:08.384Z,922.00
2023-05-02T09:37:08.374Z,921.00
2023-05-02T09:38:08.424Z,925.00
2023-05-02T09:39:08.429Z,924.00
2023-05-02T09:40:08.471Z,923.00
2023-05-02T09:41:08.527Z,927.00
2023-05-02T09:42:08.533Z,989.00
2023-05-02T09:43:08.549Z,1008.00
2023-05-02T09:44:08.624Z,1031.00
2023-05-02T09:45:08.635Z,1042.00
2023-05-02T09:46:09.182Z,1049.00
2023-05-02T09:47:08.763Z,1065.00
2023-05-02T09:48:08.830Z,1078.00
2023-05-02T09:49:08.832Z,1079.00
2023-05-02T09:50:08.868Z,1082.00
2023-05-02T09:51:08.943Z,1084.00
2023-05-02T09:52:08.929Z,1076.00
2023-05-02T09:53:08.980Z,1066.00
2023-05-02T09:54:09.016Z,1056.00
2023-05-02T09:55:10.025Z,1051.00
2023-05-02T09:56:09.323Z,1047.00
2023-05-02T09:57:09.095Z,1045.00
2023-05-02T09:58:09.098Z,1045.00
2023-05-02T09:59:09.158Z,1051.00
2023-05-02T10:00:09.159Z,1055.00
2023-05-02T10:01:09.268Z,1052.00
2023-05-02T10:02:09.224Z,1050.00
2023-05-02T10:03:09.312Z,1048.00
2023-05-02T10:04:09.363Z,1048.00
2023-05-02T10:05:09.378Z,1045.00
2023-05-02T10:06:09.462Z,1048.00
2023-05-02T10:07:09.430Z,1051.00
2023-05-02T10:08:09.459Z,1051.00
2023-05-02T10:09:09.505Z,1047.00
2023-05-02T10:10:09.550Z,1038.00
2023-05-02T10:11:09.656Z,1039.00
2023-05-02T10:12:10.621Z,1037.00
2023-05-02T10:13:09.569Z,1038.00
2023-05-02T10:14:09.574Z,1040.00
2023-05-02T10:15:09.578Z,1039.00
2023-05-02T10:16:09.576Z,1033.00
2023-05-02T10:17:09.523Z,1030.00
2023-05-02T10:18:09.692Z,1034.00
2023-05-02T10:19:09.572Z,1036.00
2023-05-02T10:20:09.531Z,1028.00
2023-05-02T10:21:09.499Z,1019.00
2023-05-02T10:22:09.513Z,1013.00
2023-05-02T10:23:09.525Z,1018.00
2023-05-02T10:24:09.525Z,1017.00
2023-05-02T10:25:09.587Z,1016.00
2023-05-02T10:26:09.612Z,1007.00
2023-05-02T10:27:09.704Z,1004.00
2023-05-02T10:28:09.725Z,998.00
2023-05-02T10:29:09.762Z,987.00
2023-05-02T10:30:09.797Z,976.00
2023-05-02T10:31:09.871Z,969.00
2023-05-02T10:32:09.873Z,966.00
2023-05-02T10:33:09.972Z,965.00
2023-05-02T10:34:09.983Z,965.00
2023-05-02T10:35:10.009Z,966.00
2023-05-02T10:36:10.062Z,982.00
2023-05-02T10:37:10.065Z,986.00
2023-05-02T10:38:10.092Z,1005.00
2023-05-02T10:39:10.114Z,1011.00
2023-05-02T10:40:10.181Z,1013.00
2023-05-02T10:41:10.524Z,1019.00
2023-05-02T10:42:10.230Z,1025.00
2023-05-02T10:43:10.212Z,1027.00
2023-05-02T10:44:10.251Z,1029.00
2023-05-02T10:45:10.282Z,1032.00
2023-05-02T10:46:10.342Z,1035.00
2023-05-02T10:47:10.336Z,1035.00
2023-05-02T10:48:10.387Z,1035.00
2023-05-02T10:49:10.326Z,1034.00
2023-05-02T10:50:10.355Z,1028.00
2023-05-02T10:51:10.377Z,1025.00
2023-05-02T10:52:10.389Z,1021.00
2023-05-02T10:53:10.391Z,1014.00
2023-05-02T10:54:10.406Z,1011.00
2023-05-02T10:55:10.469Z,931.00
2023-05-02T10:56:10.512Z,929.00
2023-05-02T10:57:10.520Z,896.00
2023-05-02T10:58:10.542Z,905.00
2023-05-02T10:59:10.599Z,897.00
2023-05-02T11:00:10.627Z,878.00
2023-05-02T11:01:10.733Z,867.00
2023-05-02T11:02:10.729Z,872.00
2023-05-02T11:03:10.844Z,882.00
2023-05-02T11:04:10.822Z,882.00
2023-05-02T11:05:10.862Z,873.00
2023-05-02T11:06:10.925Z,862.00
2023-05-02T11:07:10.956Z,855.00
2023-05-02T11:08:10.998Z,851.00
2023-05-02T11:09:11.012Z,843.00
2023-05-02T11:10:11.082Z,838.00
2023-05-02T11:11:11.122Z,840.00
2023-05-02T11:12:11.163Z,844.00
2023-05-02T11:13:11.188Z,855.00
2023-05-02T11:14:11.256Z,901.00
2023-05-02T11:15:12.053Z,903.00
2023-05-02T11:16:11.425Z,908.00
2023-05-02T11:17:11.437Z,911.00
2023-05-02T11:18:11.538Z,901.00
2023-05-02T11:19:11.540Z,893.00
2023-05-02T11:20:11.579Z,887.00
2023-05-02T11:21:12.069Z,883.00
2023-05-02T11:22:11.656Z,876.00
2023-05-02T11:23:11.745Z,867.00
2023-05-02T11:24:11.737Z,862.00
2023-05-02T11:25:11.817Z,853.00
2023-05-02T11:26:11.879Z,849.00
2023-05-02T11:27:11.902Z,847.00
2023-05-02T11:28:11.943Z,846.00
2023-05-02T11:29:12.005Z,889.00
2023-05-02T11:30:12.058Z,896.00
2023-05-02T11:31:12.056Z,884.00
2023-05-02T11:32:12.121Z,876.00
2023-05-02T11:33:12.190Z,875.00
2023-05-02T11:34:12.228Z,879.00
2023-05-02T11:35:12.253Z,881.00
2023-05-02T11:36:12.542Z,881.00
2023-05-02T11:37:12.364Z,878.00
2023-05-02T11:38:12.386Z,876.00
2023-05-02T11:39:12.473Z,876.00
2023-05-02T11:40:12.529Z,876.00
2023-05-02T11:41:12.548Z,872.00
2023-05-02T11:42:12.593Z,873.00
2023-05-02T11:43:12.612Z,870.00
2023-05-02T11:44:12.682Z,864.00
2023-05-02T11:45:12.743Z,864.00
2023-05-02T11:46:12.910Z,862.00
2023-05-02T11:47:12.822Z,862.00
2023-05-02T11:48:12.925Z,856.00
2023-05-02T11:49:14.746Z,857.00
2023-05-02T11:50:12.928Z,861.00
2023-05-02T11:51:12.993Z,868.00
2023-05-02T11:52:13.026Z,864.00
2023-05-02T11:53:13.077Z,863.00
2023-05-02T11:54:13.127Z,861.00
2023-05-02T11:55:13.189Z,856.00
2023-05-02T11:56:13.209Z,852.00
2023-05-02T11:57:13.258Z,849.00
2023-05-02T11:58:13.299Z,849.00
2023-05-02T11:59:13.385Z,852.00
2023-05-02T12:00:13.436Z,849.00
2023-05-02T12:01:13.649Z,853.00
2023-05-02T12:02:13.553Z,847.00
2023-05-02T12:03:13.646Z,844.00
2023-05-02T12:04:13.606Z,841.00
2023-05-02T12:05:13.771Z,835.00
2023-05-02T12:06:14.194Z,830.00
2023-05-02T12:07:13.809Z,808.00
2023-05-02T12:08:13.804Z,808.00
2023-05-02T12:09:13.863Z,809.00
2023-05-02T12:10:13.905Z,811.00
2023-05-02T12:11:13.930Z,806.00
2023-05-02T12:12:14.016Z,811.00
2023-05-02T12:13:14.041Z,868.00
2023-05-02T12:14:14.105Z,811.00
2023-05-02T12:15:14.138Z,799.00
2023-05-02T12:16:14.231Z,795.00
2023-05-02T12:17:14.212Z,792.00
2023-05-02T12:18:14.295Z,795.00
2023-05-02T12:19:14.357Z,799.00
2023-05-02T12:20:14.366Z,794.00
2023-05-02T12:21:14.451Z,785.00
2023-05-02T12:22:14.478Z,780.00
2023-05-02T12:23:14.549Z,778.00
2023-05-02T12:24:14.560Z,765.00
2023-05-02T12:25:14.617Z,754.00
2023-05-02T12:26:14.646Z,741.00
2023-05-02T12:27:14.715Z,731.00